createdAt,value
2022-12-19T00:04:38.373Z,8.07
2022-12-19T00:09:40.040Z,8.23
2022-12-19T00:14:41.626Z,7.70
2022-12-19T00:19:43.220Z,7.63
2022-12-19T00:24:44.829Z,6.80
2022-12-19T00:29:46.534Z,7.30
2022-12-19T00:34:48.219Z,7.03
2022-12-19T00:39:49.834Z,6.60
2022-12-19T00:44:51.415Z,8.20
2022-12-19T00:49:53.035Z,6.73
2022-12-19T00:54:56.538Z,7.47
2022-12-19T00:59:58.128Z,7.60
2022-12-19T01:05:01.540Z,7.60
2022-12-19T01:10:04.415Z,7.50
2022-12-19T01:15:06.484Z,7.90
2022-12-19T01:20:11.372Z,7.97
2022-12-19T01:25:14.170Z,8.37
2022-12-19T01:30:16.158Z,8.03
2022-12-19T01:35:21.818Z,7.97
2022-12-19T01:40:24.097Z,12.23
2022-12-19T01:45:33.456Z,11.13
2022-12-19T01:50:56.247Z,13.10
2022-12-19T01:56:09.844Z,14.50
2022-12-19T02:01:12.152Z,14.20
2022-12-19T02:06:16.404Z,14.30
2022-12-19T02:11:18.605Z,15.43
2022-12-19T02:16:47.218Z,14.80
2022-12-19T02:21:57.245Z,15.47
2022-12-19T02:27:11.613Z,14.53
2022-12-19T02:32:18.716Z,15.40
2022-12-19T02:37:27.145Z,14.17
2022-12-19T02:42:38.280Z,14.30
2022-12-19T02:47:40.669Z,14.10
2022-12-19T02:52:45.386Z,17.53
2022-12-19T02:57:46.936Z,17.90
2022-12-19T03:03:07.115Z,16.43
2022-12-19T03:08:47.164Z,17.47
2022-12-19T03:14:12.562Z,18.53
2022-12-19T03:19:16.207Z,16.90
2022-12-19T03:24:18.914Z,17.97
2022-12-19T03:29:45.476Z,19.50
2022-12-19T03:35:04.375Z,18.17
2022-12-19T03:40:12.736Z,18.33
2022-12-19T03:45:21.480Z,17.47
2022-12-19T03:50:27.145Z,17.17
2022-12-19T03:55:36.535Z,17.73
2022-12-19T04:00:42.398Z,17.20
2022-12-19T04:05:46.945Z,17.30
2022-12-19T04:10:53.084Z,16.63
2022-12-19T04:16:06.812Z,16.73
2022-12-19T04:21:15.275Z,16.67
2022-12-19T04:26:20.050Z,15.63
2022-12-19T04:31:23.200Z,16.60
2022-12-19T04:36:26.404Z,15.43
2022-12-19T04:41:28.063Z,16.07
2022-12-19T04:46:29.675Z,16.53
2022-12-19T04:51:31.436Z,16.07
2022-12-19T04:56:33.071Z,16.00
2022-12-19T05:01:34.836Z,15.80
2022-12-19T05:06:36.717Z,16.30
2022-12-19T05:11:38.873Z,13.87
2022-12-19T05:16:40.438Z,15.67
2022-12-19T05:21:42.359Z,15.40
2022-12-19T05:26:44.009Z,15.20
2022-12-19T05:31:45.738Z,15.20
2022-12-19T05:36:48.500Z,14.80
2022-12-19T05:41:50.094Z,14.67
2022-12-19T05:46:51.812Z,13.93
2022-12-19T05:51:53.417Z,14.23
2022-12-19T05:56:55.037Z,14.83
2022-12-19T06:01:56.748Z,14.37
2022-12-19T06:06:58.862Z,13.27
2022-12-19T06:12:00.427Z,13.63
2022-12-19T06:17:02.001Z,14.87
2022-12-19T06:22:03.606Z,14.77
2022-12-19T06:27:05.348Z,15.23
2022-12-19T06:32:07.030Z,14.17
2022-12-19T06:37:11.998Z,13.67
2022-12-19T06:42:25.702Z,12.07
2022-12-19T06:47:27.355Z,15.23
2022-12-19T06:52:28.956Z,15.37
2022-12-19T06:57:30.615Z,14.87
2022-12-19T07:02:32.767Z,15.30
2022-12-19T07:07:34.577Z,16.73
2022-12-19T07:12:36.443Z,15.57
2022-12-19T07:17:38.574Z,17.47
2022-12-19T07:22:41.420Z,16.00
2022-12-19T07:27:43.389Z,14.83
2022-12-19T07:32:44.991Z,17.30
2022-12-19T07:37:46.598Z,16.43
2022-12-19T07:42:48.188Z,15.40
2022-12-19T07:47:50.475Z,17.52
2022-12-19T07:52:52.091Z,17.83
2022-12-19T07:57:55.431Z,17.47
2022-12-19T08:02:59.486Z,18.30
2022-12-19T08:08:01.276Z,20.27
2022-12-19T08:13:03.045Z,18.45
2022-12-19T08:18:04.643Z,19.13
2022-12-19T08:23:06.253Z,20.75
2022-12-19T08:28:08.080Z,20.42
2022-12-19T08:33:09.685Z,20.40
2022-12-19T08:38:11.304Z,22.60
2022-12-19T08:43:12.938Z,23.73
2022-12-19T08:48:14.524Z,22.88
2022-12-19T08:53:20.140Z,21.63
2022-12-19T08:58:25.647Z,35.40
2022-12-19T09:03:29.523Z,27.40
2022-12-19T09:08:45.266Z,31.20
2022-12-19T09:13:48.058Z,29.35
2022-12-19T09:18:52.083Z,27.38
2022-12-19T09:23:56.155Z,25.75
2022-12-19T09:29:00.821Z,27.92
2022-12-19T09:34:04.488Z,26.83
2022-12-19T09:39:06.113Z,27.13
2022-12-19T09:44:46.767Z,20.40
2022-12-19T09:49:49.189Z,25.25
2022-12-19T09:55:06.213Z,24.17
2022-12-19T10:00:14.924Z,13.32
2022-12-19T10:06:15.529Z,11.00
2022-12-19T10:12:36.291Z,10.05
2022-12-19T10:16:35.655Z,9.98
2022-12-19T10:22:16.789Z,11.93
2022-12-19T10:27:28.968Z,10.73
2022-12-19T10:33:11.755Z,9.80
2022-12-19T10:38:34.090Z,8.73
2022-12-19T10:43:51.721Z,9.02
2022-12-19T10:48:53.542Z,8.75
2022-12-19T10:53:57.384Z,7.93
2022-12-19T10:59:00.436Z,7.93
2022-12-19T11:04:11.731Z,8.35
2022-12-19T11:09:29.364Z,8.77
2022-12-19T11:18:21.331Z,8.60
2022-12-19T11:29:36.449Z,9.30
2022-12-19T11:30:43.171Z,7.80
2022-12-19T11:36:05.059Z,7.82
2022-12-19T11:41:14.965Z,8.35
2022-12-19T11:46:43.694Z,8.50
2022-12-19T11:51:57.611Z,8.52
2022-12-19T11:56:59.702Z,7.85
2022-12-19T12:02:42.743Z,8.48
2022-12-19T12:10:31.979Z,8.45
2022-12-19T12:17:46.652Z,8.23
2022-12-19T12:31:04.352Z,9.77
2022-12-19T12:32:02.060Z,9.20
2022-12-19T12:32:04.537Z,9.40
2022-12-19T12:41:53.871Z,10.85
2022-12-19T12:47:12.828Z,11.70
2022-12-19T12:52:19.521Z,11.30
2022-12-19T12:57:27.239Z,10.90
2022-12-19T13:02:33.337Z,10.82
2022-12-19T13:07:50.322Z,11.20
2022-12-19T13:13:02.833Z,11.20
2022-12-19T13:18:32.111Z,12.45
2022-12-19T13:23:43.102Z,12.13
2022-12-19T13:28:44.723Z,12.30
2022-12-19T13:33:54.724Z,12.23
2022-12-19T13:39:57.714Z,11.55
2022-12-19T13:44:22.456Z,11.90
2022-12-19T13:49:33.336Z,12.13
2022-12-19T13:54:45.797Z,13.65
2022-12-19T13:59:54.342Z,15.27
2022-12-19T14:05:01.868Z,14.75
2022-12-19T14:11:31.742Z,14.10
2022-12-19T14:15:52.361Z,15.48
2022-12-19T14:22:11.421Z,15.15
2022-12-19T14:28:21.001Z,17.55
2022-12-19T14:33:39.102Z,18.48
2022-12-19T14:38:13.012Z,17.95
2022-12-19T14:43:58.918Z,20.30
2022-12-19T14:54:14.924Z,21.60
2022-12-19T14:59:48.642Z,14.65
2022-12-19T15:05:02.484Z,17.13
2022-12-19T15:10:59.070Z,18.42
2022-12-19T15:15:48.665Z,19.50
2022-12-19T15:20:51.884Z,18.52
2022-12-19T15:26:04.693Z,58.53
2022-12-19T15:31:18.347Z,29.58
2022-12-19T15:36:20.038Z,23.45
2022-12-19T15:41:24.190Z,20.30
2022-12-19T15:46:30.395Z,20.27
2022-12-19T15:51:32.167Z,19.35
2022-12-19T15:56:37.937Z,17.67
2022-12-19T16:01:39.580Z,19.25
2022-12-19T16:06:41.264Z,20.17
2022-12-19T16:11:42.888Z,20.55
2022-12-19T16:16:49.979Z,24.23
2022-12-19T16:21:52.082Z,23.65
2022-12-19T16:26:56.730Z,19.42
2022-12-19T16:32:00.414Z,20.67
2022-12-19T16:37:02.123Z,18.85
2022-12-19T16:42:05.040Z,17.65
2022-12-19T16:47:12.608Z,19.95
2022-12-19T16:52:14.269Z,18.17
2022-12-19T16:57:19.837Z,18.45
2022-12-19T17:02:45.346Z,26.60
2022-12-19T17:07:47.519Z,21.15
2022-12-19T17:12:49.455Z,21.30
2022-12-19T17:17:53.204Z,23.15
2022-12-19T17:22:54.822Z,29.48
2022-12-19T17:27:56.590Z,29.75
2022-12-19T17:32:58.198Z,33.58
2022-12-19T17:37:59.808Z,29.40
2022-12-19T17:43:01.718Z,20.77
2022-12-19T17:48:15.720Z,25.98
2022-12-19T17:53:17.331Z,24.73
2022-12-19T17:58:18.955Z,25.42
2022-12-19T18:03:23.913Z,25.48
2022-12-19T18:08:30.183Z,25.67
2022-12-19T18:13:32.248Z,26.00
2022-12-19T18:18:35.613Z,18.13
2022-12-19T18:23:37.221Z,14.77
2022-12-19T18:28:39.940Z,14.27
2022-12-19T18:33:45.365Z,13.70
2022-12-19T18:38:48.700Z,13.40
2022-12-19T18:43:50.381Z,14.55
2022-12-19T18:48:52.131Z,17.75
2022-12-19T18:53:53.781Z,21.92
2022-12-19T18:58:55.403Z,23.45
2022-12-19T19:03:59.239Z,24.50
2022-12-19T19:09:01.013Z,21.40
2022-12-19T19:14:21.117Z,23.83
2022-12-19T19:19:22.789Z,27.77
2022-12-19T19:24:24.497Z,24.02
2022-12-19T19:29:26.085Z,25.63
2022-12-19T19:34:31.519Z,26.50
2022-12-19T19:39:34.460Z,20.27
2022-12-19T19:44:36.098Z,28.35
2022-12-19T19:49:37.711Z,25.33
2022-12-19T19:54:39.322Z,19.92
2022-12-19T19:59:40.976Z,17.58
2022-12-19T20:04:42.632Z,20.55
2022-12-19T20:09:44.369Z,22.73
2022-12-19T20:14:47.122Z,25.23
2022-12-19T20:19:48.706Z,22.02
2022-12-19T20:24:50.309Z,22.40
2022-12-19T20:29:51.955Z,21.60
2022-12-19T20:34:53.551Z,21.25
2022-12-19T20:39:55.133Z,20.23
2022-12-19T20:44:56.726Z,14.52
2022-12-19T20:49:58.504Z,19.00
2022-12-19T20:55:00.116Z,20.45
2022-12-19T21:00:02.083Z,20.88
2022-12-19T21:05:03.979Z,19.77
2022-12-19T21:10:06.371Z,18.02
2022-12-19T21:15:08.125Z,17.98
2022-12-19T21:20:10.575Z,18.63
2022-12-19T21:25:12.213Z,15.93
2022-12-19T21:30:13.937Z,19.80
2022-12-19T21:35:15.627Z,20.25
2022-12-19T21:40:18.573Z,17.52
2022-12-19T21:45:20.198Z,17.15
2022-12-19T21:50:21.771Z,16.77
2022-12-19T21:55:23.332Z,15.68
2022-12-19T22:00:25.036Z,15.80
2022-12-19T22:05:26.708Z,16.67
2022-12-19T22:10:28.276Z,18.88
2022-12-19T22:15:29.881Z,16.20
2022-12-19T22:20:31.524Z,16.02
2022-12-19T22:25:33.106Z,16.73
2022-12-19T22:30:35.990Z,16.33
2022-12-19T22:35:37.819Z,17.88
2022-12-19T22:40:39.642Z,19.42
2022-12-19T22:45:41.863Z,16.88
2022-12-19T22:50:47.118Z,16.55
2022-12-19T22:55:48.914Z,16.25
2022-12-19T23:00:50.760Z,16.40
2022-12-19T23:05:52.563Z,17.27
2022-12-19T23:10:54.459Z,17.65
2022-12-19T23:15:57.701Z,18.37
2022-12-19T23:21:09.619Z,17.30
2022-12-19T23:26:17.309Z,18.30
2022-12-19T23:31:19.715Z,19.03
2022-12-19T23:36:45.300Z,16.73
2022-12-19T23:41:44.294Z,18.95
2022-12-19T23:46:46.317Z,16.90
2022-12-19T23:51:48.139Z,17.43
2022-12-19T23:56:50.001Z,17.47
